This is the latest recevied weather packets stored in our database for station/object DW2488. If no packets are shown the sender has not sent any weather packets the latest 1 day(s).
| Time | Temp. | Humidity | Pressure | Rain* | Wind** | Luminosity | Snow |
|---|---|---|---|---|---|---|---|
| 1778099776 | 8.89° C | 75% | 1012.7 hPa | 0 mm | - | 0 W/m² | - |
| 1778098872 | 8.89° C | 75% | 1012.6 hPa | 0 mm | - | 0 W/m² | - |
| 1778097973 | 9.44° C | 72% | 1012.8 hPa | 0 mm | - | 0 W/m² | - |
| 1778096179 | 11.11° C | 68% | 1012.9 hPa | 0 mm | - | 0 W/m² | - |
| 1778092561 | 9.44° C | 75% | 1013.1 hPa | 0 mm | - | 0 W/m² | - |
| 1778089855 | 10° C | 74% | 1013.1 hPa | 0 mm | - | 0 W/m² | - |
| 1778088955 | 11.11° C | 71% | 1013.2 hPa | 0 mm | - | 0 W/m² | - |
| 1778088044 | 12.22° C | 69% | 1013.5 hPa | 0 mm | - | 0 W/m² | - |
| 1778087137 | 12.22° C | 68% | 1013.6 hPa | 0 mm | - | 0 W/m² | - |
| 1778083525 | 9.44° C | 84% | 1013.9 hPa | 0 mm | - | 0 W/m² | - |
| 1778082623 | 8.89° C | 85% | 1014 hPa | 0 mm | - | 0 W/m² | - |
| 1778080812 | 9.44° C | 85% | 1014.4 hPa | 0 mm | - | 0 W/m² | - |
| 1778079918 | 9.44° C | 85% | 1014.4 hPa | 0 mm | - | 0 W/m² | - |
| 1778078064 | 10° C | 85% | 1014.5 hPa | 0 mm | - | 0 W/m² | - |
| 1778077161 | 10.56° C | 85% | 1014.6 hPa | 0 mm | - | 0 W/m² | - |
| 1778074453 | 10.56° C | 85% | 1014.8 hPa | 0 mm | - | 0 W/m² | - |
| 1778073552 | 10.56° C | 85% | 1014.9 hPa | 0 mm | - | 0 W/m² | - |
| 1778071752 | 11.11° C | 84% | 1015 hPa | 0 mm | - | 0 W/m² | - |
| 1778065451 | 12.78° C | 83% | 1016.3 hPa | 0 mm | - | 0 W/m² | - |
| 1778064558 | 12.78° C | 82% | 1016.4 hPa | 0 mm | - | 0 W/m² | - |
| 1778063658 | 13.33° C | 82% | 1016.3 hPa | 0 mm | - | 0 W/m² | - |
| 1778062751 | 13.33° C | 81% | 1016.4 hPa | 0 mm | - | 0 W/m² | - |
| 1778061852 | 13.33° C | 81% | 1016.3 hPa | 0 mm | - | 0 W/m² | - |
| 1778060058 | 13.89° C | 80% | 1016.4 hPa | 0 mm | - | 0 W/m² | - |
| 1778057317 | 15° C | 76% | 1016.5 hPa | 0 mm | - | 0 W/m² | - |
* Rain latest hour (hover to see other rain measurements)
** Current wind speed in m/s (hover to see current wind gust speed)